sensor_id;sensor_type;location;lat;lon;timestamp;pressure;altitude;pressure_sealevel;temperature;humidity
71567;BME280;59403;47.456;19.120;2023-03-04T00:02:06;100505.88;;;1.40;97.85
71567;BME280;59403;47.456;19.120;2023-03-04T00:04:32;100499.19;;;1.36;97.61
71567;BME280;59403;47.456;19.120;2023-03-04T00:06:59;100513.28;;;1.34;97.67
71567;BME280;59403;47.456;19.120;2023-03-04T00:09:26;100508.97;;;1.33;98.08
71567;BME280;59403;47.456;19.120;2023-03-04T00:11:53;100516.69;;;1.34;97.79
71567;BME280;59403;47.456;19.120;2023-03-04T00:14:20;100514.59;;;1.27;98.30
71567;BME280;59403;47.456;19.120;2023-03-04T00:16:49;100506.22;;;1.22;98.56
71567;BME280;59403;47.456;19.120;2023-03-04T00:19:16;100500.78;;;1.25;97.88
71567;BME280;59403;47.456;19.120;2023-03-04T00:21:43;100503.50;;;1.23;97.85
71567;BME280;59403;47.456;19.120;2023-03-04T00:24:10;100503.59;;;1.22;97.74
71567;BME280;59403;47.456;19.120;2023-03-04T00:26:37;100509.94;;;1.17;98.66
71567;BME280;59403;47.456;19.120;2023-03-04T00:29:04;100491.78;;;1.02;98.77
71567;BME280;59403;47.456;19.120;2023-03-04T00:31:31;100510.50;;;1.08;98.27
71567;BME280;59403;47.456;19.120;2023-03-04T00:33:59;100502.13;;;1.03;98.38
71567;BME280;59403;47.456;19.120;2023-03-04T00:36:26;100505.84;;;0.99;98.31
71567;BME280;59403;47.456;19.120;2023-03-04T00:38:53;100503.06;;;1.02;97.87
71567;BME280;59403;47.456;19.120;2023-03-04T00:41:20;100510.50;;;0.94;97.74
71567;BME280;59403;47.456;19.120;2023-03-04T00:43:47;100508.72;;;0.95;97.77
71567;BME280;59403;47.456;19.120;2023-03-04T00:46:14;100508.94;;;0.92;98.14
71567;BME280;59403;47.456;19.120;2023-03-04T00:48:41;100504.91;;;0.86;98.61
71567;BME280;59403;47.456;19.120;2023-03-04T00:51:09;100499.50;;;0.89;98.84
71567;BME280;59403;47.456;19.120;2023-03-04T00:53:36;100505.66;;;0.88;98.72
71567;BME280;59403;47.456;19.120;2023-03-04T00:56:03;100499.81;;;0.85;98.35
71567;BME280;59403;47.456;19.120;2023-03-04T00:58:30;100498.00;;;0.85;99.01
71567;BME280;59403;47.456;19.120;2023-03-04T01:00:56;100498.31;;;0.81;98.61
71567;BME280;59403;47.456;19.120;2023-03-04T01:03:23;100495.81;;;0.79;98.67
71567;BME280;59403;47.456;19.120;2023-03-04T01:05:51;100494.75;;;0.82;98.27
71567;BME280;59403;47.456;19.120;2023-03-04T01:08:19;100492.72;;;0.73;99.12
71567;BME280;59403;47.456;19.120;2023-03-04T01:10:46;100488.63;;;0.69;99.46
71567;BME280;59403;47.456;19.120;2023-03-04T01:13:13;100468.44;;;0.58;99.23
71567;BME280;59403;47.456;19.120;2023-03-04T01:15:40;100483.78;;;0.63;99.64
71567;BME280;59403;47.456;19.120;2023-03-04T01:18:07;100480.50;;;0.59;99.26
71567;BME280;59403;47.456;19.120;2023-03-04T01:20:34;100470.38;;;0.55;99.49
71567;BME280;59403;47.456;19.120;2023-03-04T01:23:01;100480.78;;;0.55;99.16
71567;BME280;59403;47.456;19.120;2023-03-04T01:25:29;100477.72;;;0.48;100.00
71567;BME280;59403;47.456;19.120;2023-03-04T01:27:57;100482.75;;;0.51;99.85
71567;BME280;59403;47.456;19.120;2023-03-04T01:30:24;100473.34;;;0.49;100.00
71567;BME280;59403;47.456;19.120;2023-03-04T01:32:51;100470.06;;;0.45;100.00
71567;BME280;59403;47.456;19.120;2023-03-04T01:35:17;100465.06;;;0.42;100.00
71567;BME280;59403;47.456;19.120;2023-03-04T01:37:44;100459.09;;;0.40;100.00
71567;BME280;59403;47.456;19.120;2023-03-04T01:40:12;100461.63;;;0.42;100.00
71567;BME280;59403;47.456;19.120;2023-03-04T01:42:41;100462.66;;;0.39;99.94
71567;BME280;59403;47.456;19.120;2023-03-04T01:45:11;100456.22;;;0.31;100.00
71567;BME280;59403;47.456;19.120;2023-03-04T01:47:40;100444.28;;;0.27;100.00
71567;BME280;59403;47.456;19.120;2023-03-04T01:50:17;100449.03;;;0.20;100.00
71567;BME280;59403;47.456;19.120;2023-03-04T01:52:44;100447.37;;;0.19;100.00
71567;BME280;59403;47.456;19.120;2023-03-04T01:55:16;100462.16;;;0.19;100.00
71567;BME280;59403;47.456;19.120;2023-03-04T01:57:44;100447.37;;;0.19;100.00
71567;BME280;59403;47.456;19.120;2023-03-04T02:00:24;100455.62;;;0.12;100.00
71567;BME280;59403;47.456;19.120;2023-03-04T02:02:54;100453.13;;;0.10;100.00
71567;BME280;59403;47.456;19.120;2023-03-04T02:05:23;100446.87;;;0.13;100.00
71567;BME280;59403;47.456;19.120;2023-03-04T02:07:52;100445.12;;;0.13;100.00
71567;BME280;59403;47.456;19.120;2023-03-04T02:10:20;100448.47;;;0.15;100.00
71567;BME280;59403;47.456;19.120;2023-03-04T02:12:48;100445.31;;;0.10;100.00
71567;BME280;59403;47.456;19.120;2023-03-04T02:15:15;100444.56;;;0.08;100.00
71567;BME280;59403;47.456;19.120;2023-03-04T02:17:42;100436.38;;;0.00;100.00
71567;BME280;59403;47.456;19.120;2023-03-04T02:20:19;100440.34;;;0.06;100.00
71567;BME280;59403;47.456;19.120;2023-03-04T02:22:55;100432.38;;;0.09;100.00
71567;BME280;59403;47.456;19.120;2023-03-04T02:25:30;100427.44;;;0.04;100.00
71567;BME280;59403;47.456;19.120;2023-03-04T02:28:00;100425.47;;;0.08;100.00
71567;BME280;59403;47.456;19.120;2023-03-04T02:30:27;100412.84;;;0.02;100.00
71567;BME280;59403;47.456;19.120;2023-03-04T02:32:54;100411.16;;;0.00;100.00
71567;BME280;59403;47.456;19.120;2023-03-04T02:35:21;100408.16;;;-0.08;100.00
71567;BME280;59403;47.456;19.120;2023-03-04T02:37:48;100410.34;;;0.00;100.00
71567;BME280;59403;47.456;19.120;2023-03-04T02:40:20;100403.81;;;-0.07;100.00
71567;BME280;59403;47.456;19.120;2023-03-04T02:42:49;100411.13;;;-0.14;100.00
71567;BME280;59403;47.456;19.120;2023-03-04T02:45:40;100410.13;;;-0.11;100.00
71567;BME280;59403;47.456;19.120;2023-03-04T02:48:08;100407.59;;;-0.13;100.00
71567;BME280;59403;47.456;19.120;2023-03-04T02:50:38;100402.66;;;-0.17;100.00
71567;BME280;59403;47.456;19.120;2023-03-04T02:53:06;100408.50;;;-0.14;100.00
71567;BME280;59403;47.456;19.120;2023-03-04T02:55:33;100397.91;;;-0.25;100.00
71567;BME280;59403;47.456;19.120;2023-03-04T02:58:00;100396.78;;;-0.21;100.00
71567;BME280;59403;47.456;19.120;2023-03-04T03:00:28;100383.41;;;-0.29;100.00
71567;BME280;59403;47.456;19.120;2023-03-04T03:02:56;100396.97;;;-0.24;100.00
71567;BME280;59403;47.456;19.120;2023-03-04T03:05:25;100393.63;;;-0.26;100.00
71567;BME280;59403;47.456;19.120;2023-03-04T03:07:52;100398.06;;;-0.28;100.00
71567;BME280;59403;47.456;19.120;2023-03-04T03:10:19;100393.81;;;-0.29;100.00
71567;BME280;59403;47.456;19.120;2023-03-04T03:12:46;100389.59;;;-0.31;100.00
71567;BME280;59403;47.456;19.120;2023-03-04T03:15:13;100391.53;;;-0.35;100.00
71567;BME280;59403;47.456;19.120;2023-03-04T03:17:40;100401.12;;;-0.35;100.00
71567;BME280;59403;47.456;19.120;2023-03-04T03:20:11;100389.00;;;-0.50;100.00
71567;BME280;59403;47.456;19.120;2023-03-04T03:22:38;100386.72;;;-0.41;100.00
71567;BME280;59403;47.456;19.120;2023-03-04T03:25:06;100388.38;;;-0.40;100.00
71567;BME280;59403;47.456;19.120;2023-03-04T03:27:34;100391.16;;;-0.43;100.00
71567;BME280;59403;47.456;19.120;2023-03-04T03:30:02;100387.00;;;-0.45;100.00
71567;BME280;59403;47.456;19.120;2023-03-04T03:32:29;100383.63;;;-0.47;100.00
71567;BME280;59403;47.456;19.120;2023-03-04T03:34:56;100378.59;;;-0.50;100.00
71567;BME280;59403;47.456;19.120;2023-03-04T03:37:24;100375.25;;;-0.52;100.00
71567;BME280;59403;47.456;19.120;2023-03-04T03:39:51;100367.59;;;-0.55;100.00
71567;BME280;59403;47.456;19.120;2023-03-04T03:42:18;100373.75;;;-0.56;100.00
71567;BME280;59403;47.456;19.120;2023-03-04T03:44:44;100367.69;;;-0.57;100.00
71567;BME280;59403;47.456;19.120;2023-03-04T03:47:12;100366.13;;;-0.59;100.00
71567;BME280;59403;47.456;19.120;2023-03-04T03:49:38;100366.84;;;-0.57;100.00
71567;BME280;59403;47.456;19.120;2023-03-04T03:52:05;100365.28;;;-0.60;100.00
71567;BME280;59403;47.456;19.120;2023-03-04T03:54:35;100366.56;;;-0.67;100.00
71567;BME280;59403;47.456;19.120;2023-03-04T03:57:02;100368.50;;;-0.70;100.00
71567;BME280;59403;47.456;19.120;2023-03-04T03:59:29;100365.47;;;-0.63;100.00
71567;BME280;59403;47.456;19.120;2023-03-04T04:01:56;100362.34;;;-0.69;100.00
71567;BME280;59403;47.456;19.120;2023-03-04T04:04:23;100368.91;;;-0.78;100.00
71567;BME280;59403;47.456;19.120;2023-03-04T04:06:49;100370.25;;;-0.71;100.00
71567;BME280;59403;47.456;19.120;2023-03-04T04:09:16;100370.59;;;-0.77;100.00
71567;BME280;59403;47.456;19.120;2023-03-04T04:11:45;100368.75;;;-0.75;100.00
71567;BME280;59403;47.456;19.120;2023-03-04T04:14:12;100363.13;;;-0.83;100.00
71567;BME280;59403;47.456;19.120;2023-03-04T04:16:39;100364.84;;;-0.82;100.00
71567;BME280;59403;47.456;19.120;2023-03-04T04:19:06;100371.69;;;-0.81;100.00
71567;BME280;59403;47.456;19.120;2023-03-04T04:21:33;100372.34;;;-0.77;100.00
71567;BME280;59403;47.456;19.120;2023-03-04T04:24:00;100370.09;;;-0.83;100.00
71567;BME280;59403;47.456;19.120;2023-03-04T04:26:27;100367.81;;;-0.74;100.00
71567;BME280;59403;47.456;19.120;2023-03-04T04:28:55;100363.50;;;-0.89;100.00
71567;BME280;59403;47.456;19.120;2023-03-04T04:31:22;100368.53;;;-0.86;100.00
71567;BME280;59403;47.456;19.120;2023-03-04T04:33:49;100371.22;;;-0.87;100.00
71567;BME280;59403;47.456;19.120;2023-03-04T04:36:15;100365.75;;;-0.98;100.00
71567;BME280;59403;47.456;19.120;2023-03-04T04:38:43;100361.50;;;-0.99;100.00
71567;BME280;59403;47.456;19.120;2023-03-04T04:41:18;100329.00;;;-1.22;100.00
71567;BME280;59403;47.456;19.120;2023-03-04T04:43:45;100363.06;;;-0.97;100.00
71567;BME280;59403;47.456;19.120;2023-03-04T04:46:14;100361.22;;;-0.95;100.00
71567;BME280;59403;47.456;19.120;2023-03-04T04:48:41;100360.47;;;-0.97;100.00
71567;BME280;59403;47.456;19.120;2023-03-04T04:51:08;100356.97;;;-0.96;100.00
71567;BME280;59403;47.456;19.120;2023-03-04T04:53:35;100357.97;;;-0.98;100.00
71567;BME280;59403;47.456;19.120;2023-03-04T04:56:08;100354.53;;;-0.99;100.00
71567;BME280;59403;47.456;19.120;2023-03-04T04:58:35;100355.37;;;-0.98;100.00
71567;BME280;59403;47.456;19.120;2023-03-04T05:01:03;100352.59;;;-0.95;100.00
71567;BME280;59403;47.456;19.120;2023-03-04T05:03:33;100359.56;;;-0.96;100.00
71567;BME280;59403;47.456;19.120;2023-03-04T05:06:00;100359.72;;;-0.99;100.00
71567;BME280;59403;47.456;19.120;2023-03-04T05:08:27;100360.91;;;-1.04;100.00
71567;BME280;59403;47.456;19.120;2023-03-04T05:10:55;100356.53;;;-1.04;100.00
71567;BME280;59403;47.456;19.120;2023-03-04T05:13:22;100363.44;;;-1.03;100.00
71567;BME280;59403;47.456;19.120;2023-03-04T05:15:50;100356.53;;;-1.04;100.00
71567;BME280;59403;47.456;19.120;2023-03-04T05:18:17;100363.53;;;-1.04;100.00
71567;BME280;59403;47.456;19.120;2023-03-04T05:20:49;100368.12;;;-1.09;100.00
71567;BME280;59403;47.456;19.120;2023-03-04T05:23:16;100355.47;;;-1.16;100.00
71567;BME280;59403;47.456;19.120;2023-03-04T05:25:43;100369.88;;;-1.10;100.00
71567;BME280;59403;47.456;19.120;2023-03-04T05:28:10;100369.78;;;-1.08;100.00
71567;BME280;59403;47.456;19.120;2023-03-04T05:30:37;100367.69;;;-1.18;100.00
71567;BME280;59403;47.456;19.120;2023-03-04T05:33:05;100379.34;;;-1.09;100.00
71567;BME280;59403;47.456;19.120;2023-03-04T05:35:33;100381.84;;;-1.07;100.00
71567;BME280;59403;47.456;19.120;2023-03-04T05:38:01;100379.16;;;-1.06;100.00
71567;BME280;59403;47.456;19.120;2023-03-04T05:40:28;100378.25;;;-1.05;100.00
71567;BME280;59403;47.456;19.120;2023-03-04T05:42:55;100381.72;;;-1.04;100.00
71567;BME280;59403;47.456;19.120;2023-03-04T05:45:23;100383.53;;;-1.06;100.00
71567;BME280;59403;47.456;19.120;2023-03-04T05:47:49;100384.97;;;-1.01;100.00
71567;BME280;59403;47.456;19.120;2023-03-04T05:50:17;100387.41;;;-0.98;100.00
71567;BME280;59403;47.456;19.120;2023-03-04T05:52:44;100389.16;;;-0.98;100.00
71567;BME280;59403;47.456;19.120;2023-03-04T05:55:13;100399.22;;;-0.92;100.00
71567;BME280;59403;47.456;19.120;2023-03-04T05:57:40;100394.59;;;-0.87;99.98
71567;BME280;59403;47.456;19.120;2023-03-04T06:00:09;100395.34;;;-0.85;100.00
71567;BME280;59403;47.456;19.120;2023-03-04T06:02:38;100397.03;;;-0.84;99.55
71567;BME280;59403;47.456;19.120;2023-03-04T06:05:06;100397.28;;;-0.73;98.98
71567;BME280;59403;47.456;19.120;2023-03-04T06:07:33;100396.91;;;-0.67;98.16
71567;BME280;59403;47.456;19.120;2023-03-04T06:10:01;100393.13;;;-0.62;98.08
71567;BME280;59403;47.456;19.120;2023-03-04T06:12:29;100396.56;;;-0.61;97.93
71567;BME280;59403;47.456;19.120;2023-03-04T06:14:56;100400.59;;;-0.56;97.42
71567;BME280;59403;47.456;19.120;2023-03-04T06:17:23;100401.09;;;-0.49;97.31
71567;BME280;59403;47.456;19.120;2023-03-04T06:19:50;100407.75;;;-0.59;96.22
71567;BME280;59403;47.456;19.120;2023-03-04T06:22:17;100413.50;;;-0.54;96.46
71567;BME280;59403;47.456;19.120;2023-03-04T06:24:43;100409.06;;;-0.52;95.89
71567;BME280;59403;47.456;19.120;2023-03-04T06:27:11;100412.06;;;-0.44;95.81
71567;BME280;59403;47.456;19.120;2023-03-04T06:29:40;100416.75;;;-0.35;95.61
71567;BME280;59403;47.456;19.120;2023-03-04T06:32:07;100406.91;;;-0.30;95.59
71567;BME280;59403;47.456;19.120;2023-03-04T06:34:34;100416.87;;;-0.23;95.13
71567;BME280;59403;47.456;19.120;2023-03-04T06:37:01;100415.75;;;-0.19;94.46
71567;BME280;59403;47.456;19.120;2023-03-04T06:39:28;100411.06;;;0.02;93.62
71567;BME280;59403;47.456;19.120;2023-03-04T06:41:55;100407.16;;;0.09;92.86
71567;BME280;59403;47.456;19.120;2023-03-04T06:44:22;100415.81;;;0.10;93.33
71567;BME280;59403;47.456;19.120;2023-03-04T06:46:50;100411.28;;;0.13;93.54
71567;BME280;59403;47.456;19.120;2023-03-04T06:49:17;100414.25;;;0.21;92.99
71567;BME280;59403;47.456;19.120;2023-03-04T06:51:44;100416.50;;;0.27;92.20
71567;BME280;59403;47.456;19.120;2023-03-04T06:54:10;100416.06;;;0.35;92.21
71567;BME280;59403;47.456;19.120;2023-03-04T06:56:37;100417.72;;;0.36;91.84
71567;BME280;59403;47.456;19.120;2023-03-04T06:59:04;100423.03;;;0.48;92.63
71567;BME280;59403;47.456;19.120;2023-03-04T07:01:31;100420.03;;;0.54;92.35
71567;BME280;59403;47.456;19.120;2023-03-04T07:04:00;100417.81;;;0.62;91.76
71567;BME280;59403;47.456;19.120;2023-03-04T07:06:28;100415.38;;;0.73;91.79
71567;BME280;59403;47.456;19.120;2023-03-04T07:08:55;100414.69;;;0.84;91.29
71567;BME280;59403;47.456;19.120;2023-03-04T07:11:23;100412.66;;;0.89;91.89
71567;BME280;59403;47.456;19.120;2023-03-04T07:13:50;100412.28;;;0.95;91.56
71567;BME280;59403;47.456;19.120;2023-03-04T07:16:19;100411.59;;;1.05;90.97
71567;BME280;59403;47.456;19.120;2023-03-04T07:18:46;100407.94;;;1.08;90.73
71567;BME280;59403;47.456;19.120;2023-03-04T07:21:15;100404.19;;;1.26;90.61
71567;BME280;59403;47.456;19.120;2023-03-04T07:23:42;100407.78;;;1.38;90.45
71567;BME280;59403;47.456;19.120;2023-03-04T07:26:09;100402.81;;;1.47;89.89
71567;BME280;59403;47.456;19.120;2023-03-04T07:28:36;100406.28;;;1.60;89.83
71567;BME280;59403;47.456;19.120;2023-03-04T07:31:18;100403.91;;;1.70;88.52
71567;BME280;59403;47.456;19.120;2023-03-04T07:33:46;100399.13;;;1.76;88.44
71567;BME280;59403;47.456;19.120;2023-03-04T07:36:13;100409.00;;;1.98;88.53
71567;BME280;59403;47.456;19.120;2023-03-04T07:38:43;100405.66;;;2.21;86.06
71567;BME280;59403;47.456;19.120;2023-03-04T07:41:10;100402.97;;;2.84;82.28
71567;BME280;59403;47.456;19.120;2023-03-04T07:43:37;100403.44;;;2.53;84.65
71567;BME280;59403;47.456;19.120;2023-03-04T07:46:04;100400.00;;;2.52;83.67
71567;BME280;59403;47.456;19.120;2023-03-04T07:48:31;100402.87;;;2.85;83.18
71567;BME280;59403;47.456;19.120;2023-03-04T07:51:03;100402.63;;;3.01;80.79
71567;BME280;59403;47.456;19.120;2023-03-04T07:53:30;100401.34;;;3.06;80.23
71567;BME280;59403;47.456;19.120;2023-03-04T07:55:58;100400.84;;;3.01;82.31
71567;BME280;59403;47.456;19.120;2023-03-04T07:58:25;100408.03;;;3.10;82.29
71567;BME280;59403;47.456;19.120;2023-03-04T08:00:52;100401.81;;;3.24;80.25
71567;BME280;59403;47.456;19.120;2023-03-04T08:03:19;100407.75;;;3.38;79.91
71567;BME280;59403;47.456;19.120;2023-03-04T08:05:46;100401.47;;;3.76;76.97
71567;BME280;59403;47.456;19.120;2023-03-04T08:08:13;100393.00;;;3.72;77.90
71567;BME280;59403;47.456;19.120;2023-03-04T08:10:40;100398.03;;;3.75;77.72
71567;BME280;59403;47.456;19.120;2023-03-04T08:13:08;100390.03;;;4.11;73.60
71567;BME280;59403;47.456;19.120;2023-03-04T08:15:39;100394.09;;;4.93;63.42
71567;BME280;59403;47.456;19.120;2023-03-04T08:18:06;100388.59;;;5.07;61.38
71567;BME280;59403;47.456;19.120;2023-03-04T08:20:33;100383.47;;;5.37;58.60
71567;BME280;59403;47.456;19.120;2023-03-04T08:23:00;100382.87;;;5.44;58.15
71567;BME280;59403;47.456;19.120;2023-03-04T08:25:27;100392.81;;;5.61;56.63
71567;BME280;59403;47.456;19.120;2023-03-04T08:27:54;100382.31;;;5.61;55.30
71567;BME280;59403;47.456;19.120;2023-03-04T08:30:22;100378.91;;;5.50;57.14
71567;BME280;59403;47.456;19.120;2023-03-04T08:32:49;100378.69;;;5.85;54.91
71567;BME280;59403;47.456;19.120;2023-03-04T08:35:16;100379.72;;;5.82;55.13
71567;BME280;59403;47.456;19.120;2023-03-04T08:37:43;100378.81;;;5.83;55.48
71567;BME280;59403;47.456;19.120;2023-03-04T08:40:12;100380.47;;;6.05;55.45
71567;BME280;59403;47.456;19.120;2023-03-04T08:42:39;100386.37;;;5.97;55.10
71567;BME280;59403;47.456;19.120;2023-03-04T08:45:07;100370.59;;;6.18;54.83
71567;BME280;59403;47.456;19.120;2023-03-04T08:47:35;100383.41;;;6.32;55.00
71567;BME280;59403;47.456;19.120;2023-03-04T08:50:03;100378.25;;;6.51;53.99
71567;BME280;59403;47.456;19.120;2023-03-04T08:52:31;100383.88;;;6.46;54.61
71567;BME280;59403;47.456;19.120;2023-03-04T08:54:58;100376.09;;;6.35;54.98
71567;BME280;59403;47.456;19.120;2023-03-04T08:57:25;100380.56;;;6.44;55.81
71567;BME280;59403;47.456;19.120;2023-03-04T08:59:52;100382.44;;;6.63;55.00
71567;BME280;59403;47.456;19.120;2023-03-04T09:02:19;100373.94;;;6.50;55.63
71567;BME280;59403;47.456;19.120;2023-03-04T09:04:47;100386.94;;;6.81;54.61
71567;BME280;59403;47.456;19.120;2023-03-04T09:07:14;100379.63;;;6.85;55.77
71567;BME280;59403;47.456;19.120;2023-03-04T09:09:41;100383.37;;;6.82;55.62
71567;BME280;59403;47.456;19.120;2023-03-04T09:12:08;100369.84;;;6.97;55.55
71567;BME280;59403;47.456;19.120;2023-03-04T09:14:35;100369.44;;;7.11;55.65
71567;BME280;59403;47.456;19.120;2023-03-04T09:17:02;100361.00;;;7.17;55.31
71567;BME280;59403;47.456;19.120;2023-03-04T09:19:29;100363.41;;;7.48;55.30
71567;BME280;59403;47.456;19.120;2023-03-04T09:21:58;100361.03;;;7.45;54.92
71567;BME280;59403;47.456;19.120;2023-03-04T09:24:25;100364.34;;;7.38;54.71
71567;BME280;59403;47.456;19.120;2023-03-04T09:26:52;100359.06;;;7.47;54.56
71567;BME280;59403;47.456;19.120;2023-03-04T09:29:20;100361.47;;;7.50;54.65
71567;BME280;59403;47.456;19.120;2023-03-04T09:31:47;100352.00;;;7.67;54.77
71567;BME280;59403;47.456;19.120;2023-03-04T09:34:14;100352.97;;;7.75;54.71
71567;BME280;59403;47.456;19.120;2023-03-04T09:36:41;100353.53;;;7.79;54.52
71567;BME280;59403;47.456;19.120;2023-03-04T09:39:09;100346.34;;;7.71;53.51
71567;BME280;59403;47.456;19.120;2023-03-04T09:41:38;100346.88;;;7.75;53.56
71567;BME280;59403;47.456;19.120;2023-03-04T09:44:13;100357.00;;;7.79;53.57
71567;BME280;59403;47.456;19.120;2023-03-04T09:46:43;100356.13;;;7.98;53.24
71567;BME280;59403;47.456;19.120;2023-03-04T09:49:12;100347.22;;;8.18;52.75
71567;BME280;59403;47.456;19.120;2023-03-04T09:51:54;100347.09;;;8.20;52.63
71567;BME280;59403;47.456;19.120;2023-03-04T09:54:40;100340.84;;;8.30;51.83
71567;BME280;59403;47.456;19.120;2023-03-04T09:57:22;100326.91;;;8.38;52.22
71567;BME280;59403;47.456;19.120;2023-03-04T09:59:59;100336.91;;;8.44;52.13
71567;BME280;59403;47.456;19.120;2023-03-04T10:02:40;100327.91;;;8.64;51.37
71567;BME280;59403;47.456;19.120;2023-03-04T10:05:13;100323.47;;;8.64;51.79
71567;BME280;59403;47.456;19.120;2023-03-04T10:07:45;100317.16;;;8.75;51.55
71567;BME280;59403;47.456;19.120;2023-03-04T10:10:20;100318.03;;;8.93;50.62
71567;BME280;59403;47.456;19.120;2023-03-04T10:12:50;100316.16;;;9.03;51.04
71567;BME280;59403;47.456;19.120;2023-03-04T10:15:31;100317.09;;;9.29;50.74
71567;BME280;59403;47.456;19.120;2023-03-04T10:18:03;100312.22;;;9.07;50.72
71567;BME280;59403;47.456;19.120;2023-03-04T10:20:46;100313.06;;;9.07;50.07
71567;BME280;59403;47.456;19.120;2023-03-04T10:23:18;100309.75;;;9.05;50.04
71567;BME280;59403;47.456;19.120;2023-03-04T10:25:49;100298.50;;;9.21;49.44
71567;BME280;59403;47.456;19.120;2023-03-04T10:28:20;100310.28;;;9.44;49.27
71567;BME280;59403;47.456;19.120;2023-03-04T10:30:53;100302.22;;;9.46;49.64
71567;BME280;59403;47.456;19.120;2023-03-04T10:33:24;100306.81;;;9.26;49.43
71567;BME280;59403;47.456;19.120;2023-03-04T10:35:59;100296.66;;;9.31;49.55
71567;BME280;59403;47.456;19.120;2023-03-04T10:38:29;100286.97;;;9.22;49.37
71567;BME280;59403;47.456;19.120;2023-03-04T10:40:59;100286.66;;;9.43;49.66
71567;BME280;59403;47.456;19.120;2023-03-04T10:43:27;100288.56;;;9.50;50.08
71567;BME280;59403;47.456;19.120;2023-03-04T10:45:56;100278.72;;;9.60;48.90
71567;BME280;59403;47.456;19.120;2023-03-04T10:48:25;100289.59;;;9.57;49.42
71567;BME280;59403;47.456;19.120;2023-03-04T10:50:53;100272.34;;;9.71;47.79
71567;BME280;59403;47.456;19.120;2023-03-04T10:53:27;100280.00;;;9.82;47.46
71567;BME280;59403;47.456;19.120;2023-03-04T10:55:55;100274.28;;;9.86;46.49
71567;BME280;59403;47.456;19.120;2023-03-04T10:58:23;100261.00;;;10.04;46.06
71567;BME280;59403;47.456;19.120;2023-03-04T11:00:59;100256.81;;;9.93;46.61
71567;BME280;59403;47.456;19.120;2023-03-04T11:03:32;100259.47;;;10.01;44.59
71567;BME280;59403;47.456;19.120;2023-03-04T11:06:10;100250.41;;;10.04;44.41
71567;BME280;59403;47.456;19.120;2023-03-04T11:08:39;100248.19;;;10.17;43.85
71567;BME280;59403;47.456;19.120;2023-03-04T11:11:21;100242.78;;;10.01;43.93
71567;BME280;59403;47.456;19.120;2023-03-04T11:13:55;100235.97;;;10.16;43.37
71567;BME280;59403;47.456;19.120;2023-03-04T11:16:25;100232.81;;;10.20;43.09
71567;BME280;59403;47.456;19.120;2023-03-04T11:18:54;100246.06;;;10.20;42.32
71567;BME280;59403;47.456;19.120;2023-03-04T11:21:25;100235.47;;;10.20;42.79
71567;BME280;59403;47.456;19.120;2023-03-04T11:23:58;100235.16;;;10.23;43.34
71567;BME280;59403;47.456;19.120;2023-03-04T11:26:29;100231.59;;;10.41;42.46
71567;BME280;59403;47.456;19.120;2023-03-04T11:29:02;100224.22;;;10.18;42.89
71567;BME280;59403;47.456;19.120;2023-03-04T11:31:35;100220.34;;;10.39;43.19
71567;BME280;59403;47.456;19.120;2023-03-04T11:34:08;100217.28;;;10.25;42.51
71567;BME280;59403;47.456;19.120;2023-03-04T11:36:48;100224.88;;;10.20;42.99
71567;BME280;59403;47.456;19.120;2023-03-04T11:39:26;100209.69;;;10.30;43.11
71567;BME280;59403;47.456;19.120;2023-03-04T11:41:58;100213.31;;;10.21;43.08
71567;BME280;59403;47.456;19.120;2023-03-04T11:44:29;100211.25;;;10.07;43.28
71567;BME280;59403;47.456;19.120;2023-03-04T11:47:20;100197.31;;;10.31;43.13
71567;BME280;59403;47.456;19.120;2023-03-04T11:56:03;100197.06;;;10.16;42.97
71567;BME280;59403;47.456;19.120;2023-03-04T11:58:47;100194.19;;;10.02;43.11
71567;BME280;59403;47.456;19.120;2023-03-04T12:01:22;100192.19;;;10.29;43.31
71567;BME280;59403;47.456;19.120;2023-03-04T12:04:04;100191.56;;;10.52;43.40
71567;BME280;59403;47.456;19.120;2023-03-04T12:06:40;100175.47;;;10.29;43.62
71567;BME280;59403;47.456;19.120;2023-03-04T12:12:26;100185.06;;;10.30;43.78
71567;BME280;59403;47.456;19.120;2023-03-04T12:15:04;100175.63;;;10.27;43.48
71567;BME280;59403;47.456;19.120;2023-03-04T12:17:58;100162.78;;;10.49;43.46
71567;BME280;59403;47.456;19.120;2023-03-04T12:20:52;100166.94;;;10.59;44.43
71567;BME280;59403;47.456;19.120;2023-03-04T12:23:47;100160.66;;;10.60;44.60
71567;BME280;59403;47.456;19.120;2023-03-04T12:26:23;100159.34;;;10.72;44.33
71567;BME280;59403;47.456;19.120;2023-03-04T12:28:58;100155.87;;;10.72;44.84
71567;BME280;59403;47.456;19.120;2023-03-04T12:31:40;100156.53;;;10.58;44.92
71567;BME280;59403;47.456;19.120;2023-03-04T12:34:37;100154.34;;;10.53;44.75
71567;BME280;59403;47.456;19.120;2023-03-04T12:37:24;100153.19;;;10.48;44.52
71567;BME280;59403;47.456;19.120;2023-03-04T12:40:23;100149.53;;;10.49;44.22
71567;BME280;59403;47.456;19.120;2023-03-04T12:43:01;100146.13;;;10.80;44.50
71567;BME280;59403;47.456;19.120;2023-03-04T12:45:39;100142.94;;;10.69;44.27
71567;BME280;59403;47.456;19.120;2023-03-04T12:48:23;100136.00;;;10.60;44.71
71567;BME280;59403;47.456;19.120;2023-03-04T12:51:02;100130.88;;;10.74;45.49
71567;BME280;59403;47.456;19.120;2023-03-04T12:53:38;100128.06;;;10.68;44.53
71567;BME280;59403;47.456;19.120;2023-03-04T12:56:21;100132.69;;;10.74;45.24
71567;BME280;59403;47.456;19.120;2023-03-04T12:58:49;100126.06;;;10.62;44.84
71567;BME280;59403;47.456;19.120;2023-03-04T13:01:22;100120.44;;;10.57;44.80
71567;BME280;59403;47.456;19.120;2023-03-04T13:03:55;100113.97;;;10.67;44.80
71567;BME280;59403;47.456;19.120;2023-03-04T13:06:32;100113.84;;;10.85;44.50